Time;durP1;ratioP1;P1;durP2;ratioP2;P2;SDS_P1;SDS_P2;PMS_P1;PMS_P2;Temp;Humidity;BMP_temperature;BMP_pressure;BME280_temperature;BME280_humidity;BME280_pressure;Samples;Min_cycle;Max_cycle;Signal;HPM_P1;HPM_P2
2021/03/11 00:00:25;;;;;;;39.63;16.70;;;;;;;-1.91;83.13;98954.56;4979283;28;20050;-71
2021/03/11 00:02:51;;;;;;;29.10;15.40;;;;;;;-1.97;83.70;98954.34;4979993;28;20034;-70
2021/03/11 00:05:19;;;;;;;32.83;15.83;;;;;;;-1.96;83.64;98954.41;4980918;28;20364;-70
2021/03/11 00:07:44;;;;;;;39.33;16.37;;;;;;;-2.00;83.96;98952.59;4980390;28;20030;-70
2021/03/11 00:10:11;;;;;;;35.27;15.73;;;;;;;-1.98;83.97;98958.50;4977909;28;20130;-68
2021/03/11 00:12:44;;;;;;;35.27;15.57;;;;;;;-1.97;84.31;98951.81;4979022;28;20035;-65
2021/03/11 00:15:18;;;;;;;32.73;15.13;;;;;;;-1.98;84.38;98957.66;4980082;28;20026;-66
2021/03/11 00:17:44;;;;;;;32.17;15.07;;;;;;;-2.08;83.82;98961.47;4979723;28;20050;-66
2021/03/11 00:20:15;;;;;;;47.27;19.43;;;;;;;-2.07;84.20;98952.28;4979174;28;20050;-68
2021/03/11 00:22:41;;;;;;;33.77;15.47;;;;;;;-2.16;84.28;98952.81;4980842;28;20035;-66
2021/03/11 00:25:09;;;;;;;32.77;15.90;;;;;;;-2.14;84.41;98956.25;4982668;28;20069;-67
2021/03/11 00:27:34;;;;;;;38.17;16.20;;;;;;;-2.19;83.93;98946.84;4978162;28;20320;-67
2021/03/11 00:30:00;;;;;;;31.63;13.53;;;;;;;-2.19;84.26;98944.31;4980381;28;20035;-67
2021/03/11 00:32:25;;;;;;;31.53;15.40;;;;;;;-2.20;84.03;98943.47;4981463;28;20455;-67
2021/03/11 00:34:50;;;;;;;29.23;14.67;;;;;;;-2.27;83.84;98938.16;4981690;28;20437;-66
2021/03/11 00:37:16;;;;;;;33.33;15.80;;;;;;;-2.29;83.82;98927.25;4979465;28;20035;-66
2021/03/11 00:39:41;;;;;;;41.23;16.57;;;;;;;-2.31;83.81;98937.22;4980781;28;20288;-66
2021/03/11 00:42:07;;;;;;;35.10;14.80;;;;;;;-2.33;83.62;98929.63;4980950;28;20034;-66
2021/03/11 00:44:32;;;;;;;36.67;17.00;;;;;;;-2.31;83.81;98923.00;4981184;28;20018;-66
2021/03/11 00:46:57;;;;;;;37.07;16.93;;;;;;;-2.32;83.95;98936.34;4981542;28;20033;-66
2021/03/11 00:49:24;;;;;;;28.40;13.70;;;;;;;-2.34;84.26;98943.00;4981179;28;20106;-68
2021/03/11 00:51:49;;;;;;;33.87;15.57;;;;;;;-2.34;83.97;98934.59;4981613;28;20095;-69
2021/03/11 00:54:15;;;;;;;35.60;15.00;;;;;;;-2.37;84.00;98927.78;4981719;28;20062;-66
2021/03/11 00:56:40;;;;;;;35.07;15.33;;;;;;;-2.36;84.21;98924.50;4980606;28;20086;-65
2021/03/11 00:59:06;;;;;;;29.90;14.87;;;;;;;-2.40;84.01;98922.66;4981485;28;20034;-66
2021/03/11 01:01:31;;;;;;;32.83;14.97;;;;;;;-2.43;83.88;98919.19;4981807;28;20407;-65
2021/03/11 01:03:56;;;;;;;34.13;14.80;;;;;;;-2.44;83.69;98912.47;4980574;28;20063;-65
2021/03/11 01:06:22;;;;;;;35.57;15.13;;;;;;;-2.39;84.47;98911.84;4979203;28;20399;-65
2021/03/11 01:08:47;;;;;;;35.27;14.93;;;;;;;-2.37;84.50;98911.88;4979869;28;20035;-65
2021/03/11 01:11:13;;;;;;;32.77;14.13;;;;;;;-2.26;84.34;98905.59;4979451;28;20125;-66
2021/03/11 01:13:38;;;;;;;37.10;16.13;;;;;;;-2.29;83.76;98889.56;4979632;28;20023;-66
2021/03/11 01:16:05;;;;;;;32.67;15.30;;;;;;;-2.32;83.60;98880.25;4979867;28;20027;-66
2021/03/11 01:18:30;;;;;;;34.37;15.57;;;;;;;-2.37;83.88;98886.78;4979363;28;20042;-66
2021/03/11 01:20:55;;;;;;;36.00;14.87;;;;;;;-2.26;84.01;98893.03;4979713;28;20033;-66
2021/03/11 01:23:21;;;;;;;39.63;16.27;;;;;;;-2.21;83.88;98895.72;4979301;28;20332;-66
2021/03/11 01:25:46;;;;;;;34.43;14.33;;;;;;;-2.25;83.52;98887.22;4978390;28;20042;-65
2021/03/11 01:28:12;;;;;;;32.53;14.90;;;;;;;-2.23;83.46;98878.09;4978220;28;20380;-66
2021/03/11 01:30:37;;;;;;;33.20;14.13;;;;;;;-2.29;83.24;98870.31;4978333;28;20030;-66
2021/03/11 01:33:03;;;;;;;36.60;14.57;;;;;;;-2.36;83.26;98870.91;4978563;28;20351;-66
2021/03/11 01:35:28;;;;;;;31.70;15.20;;;;;;;-2.41;83.69;98859.84;4978268;28;20081;-66
2021/03/11 01:37:54;;;;;;;34.37;14.60;;;;;;;-2.45;83.58;98850.50;4977981;28;20089;-66
2021/03/11 01:40:19;;;;;;;31.60;14.53;;;;;;;-2.50;83.81;98849.47;4979117;28;20038;-66
2021/03/11 01:42:45;;;;;;;34.20;15.47;;;;;;;-2.49;83.30;98838.66;4978178;28;20069;-65
2021/03/11 01:45:11;;;;;;;31.27;13.73;;;;;;;-2.50;83.62;98847.84;4978068;28;20034;-66
2021/03/11 01:47:37;;;;;;;29.90;14.03;;;;;;;-2.56;83.07;98836.75;4978437;28;20276;-66
2021/03/11 01:50:05;;;;;;;33.77;14.30;;;;;;;-2.52;83.67;98831.03;4979427;28;20098;-66
2021/03/11 01:52:32;;;;;;;33.50;15.90;;;;;;;-2.57;83.76;98820.81;4977033;28;20273;-66
2021/03/11 01:54:57;;;;;;;38.20;15.13;;;;;;;-2.59;83.85;98821.59;4978214;28;20030;-66
2021/03/11 01:57:22;;;;;;;36.47;15.03;;;;;;;-2.58;83.98;98819.09;4977685;28;20277;-66
2021/03/11 01:59:48;;;;;;;41.47;16.17;;;;;;;-2.59;83.99;98812.41;4978323;28;20139;-66
2021/03/11 02:02:18;;;;;;;40.47;17.00;;;;;;;-2.59;83.96;98804.00;4977869;28;20035;-66
2021/03/11 02:04:44;;;;;;;34.27;15.83;;;;;;;-2.63;84.36;98799.69;4977407;28;20023;-66
2021/03/11 02:07:09;;;;;;;35.97;16.77;;;;;;;-2.64;84.20;98795.47;4978594;28;20362;-65
2021/03/11 02:09:34;;;;;;;30.43;15.57;;;;;;;-2.51;84.42;98795.09;4978196;28;20035;-66
2021/03/11 02:12:18;;;;;;;32.20;15.13;;;;;;;-2.50;84.24;98782.59;4977152;28;20444;-66
2021/03/11 02:14:46;;;;;;;31.97;13.27;;;;;;;-2.52;84.43;98783.34;4977320;28;20050;-65
2021/03/11 02:17:17;;;;;;;30.67;13.40;;;;;;;-2.60;84.33;98778.06;4974975;28;20042;-66
2021/03/11 02:20:26;;;;;;;33.73;15.77;;;;;;;-2.53;84.19;98779.13;4977756;28;20034;-66
2021/03/11 02:23:21;;;;;;;28.67;13.53;;;;;;;-2.55;84.15;98769.03;4931647;29;20048;-66
2021/03/11 02:26:14;;;;;;;34.17;15.73;;;;;;;-2.53;84.49;98774.97;4934500;29;20095;-66
2021/03/11 02:28:54;;;;;;;32.53;15.00;;;;;;;-2.55;84.26;98765.69;4932832;29;20032;-66
2021/03/11 02:31:20;;;;;;;37.17;16.03;;;;;;;-2.59;84.23;98757.19;4935802;29;20125;-67
2021/03/11 02:33:47;;;;;;;32.40;14.50;;;;;;;-2.61;84.53;98755.41;4930802;29;20036;-66
2021/03/11 02:36:14;;;;;;;38.80;16.03;;;;;;;-2.63;84.87;98752.84;4936883;29;20321;-66
2021/03/11 02:38:40;;;;;;;34.23;15.87;;;;;;;-2.73;84.95;98745.81;4932155;29;20147;-66
2021/03/11 02:41:06;;;;;;;34.07;15.70;;;;;;;-2.67;85.00;98751.03;4935099;29;20399;-65
2021/03/11 02:43:32;;;;;;;29.23;13.90;;;;;;;-2.71;85.33;98748.38;4935253;29;20082;-66
2021/03/11 02:45:58;;;;;;;33.03;14.50;;;;;;;-2.73;85.01;98747.47;4931766;29;20118;-66
2021/03/11 02:48:24;;;;;;;46.53;18.50;;;;;;;-2.76;84.99;98743.22;4933532;29;20467;-67
2021/03/11 02:50:51;;;;;;;38.70;15.07;;;;;;;-2.70;84.83;98745.06;4928016;29;20686;-67
2021/03/11 02:53:17;;;;;;;33.87;13.67;;;;;;;-2.76;84.43;98740.72;4934404;29;20098;-66
2021/03/11 02:55:43;;;;;;;32.93;14.77;;;;;;;-2.77;84.11;98742.34;4932870;29;20051;-66
2021/03/11 02:58:11;;;;;;;34.83;14.70;;;;;;;-2.74;84.16;98735.72;4923815;28;20047;-66
2021/03/11 03:00:39;;;;;;;30.87;13.57;;;;;;;-2.79;84.33;98740.56;4977500;28;20034;-66
2021/03/11 03:03:07;;;;;;;30.47;13.93;;;;;;;-2.76;84.47;98746.56;4977681;28;20030;-66
2021/03/11 03:05:34;;;;;;;33.37;13.80;;;;;;;-2.84;84.32;98737.91;4976765;28;20121;-66
2021/03/11 03:08:01;;;;;;;34.27;14.00;;;;;;;-2.84;84.54;98727.88;4976696;28;20161;-66
2021/03/11 03:10:30;;;;;;;34.33;13.93;;;;;;;-2.81;84.48;98729.66;4977511;28;20050;-66
2021/03/11 03:12:59;;;;;;;34.10;14.53;;;;;;;-2.85;84.19;98722.81;4977610;28;20035;-66
2021/03/11 03:15:24;;;;;;;32.10;15.67;;;;;;;-2.93;84.11;98721.72;4960172;28;20395;-66
2021/03/11 03:17:52;;;;;;;32.17;13.07;;;;;;;-2.84;83.99;98725.38;4976171;28;20119;-66
2021/03/11 03:20:20;;;;;;;29.57;13.37;;;;;;;-2.88;84.07;98727.72;4977834;28;20034;-66
2021/03/11 03:22:47;;;;;;;29.27;12.93;;;;;;;-2.90;83.86;98731.84;4977083;28;20313;-67
2021/03/11 03:25:14;;;;;;;28.40;13.90;;;;;;;-3.06;83.82;98710.38;4976322;28;20074;-66
2021/03/11 03:27:41;;;;;;;33.47;15.93;;;;;;;-3.00;83.52;98727.28;4975750;28;20030;-66
2021/03/11 03:30:11;;;;;;;32.83;14.30;;;;;;;-2.99;83.83;98722.34;4977302;28;20089;-67
2021/03/11 03:32:37;;;;;;;36.67;15.43;;;;;;;-3.05;83.90;98722.09;4977297;28;20034;-66
2021/03/11 03:35:08;;;;;;;33.27;14.53;;;;;;;-3.06;84.00;98710.38;4976847;28;20276;-65
2021/03/11 03:37:34;;;;;;;32.00;13.80;;;;;;;-3.05;84.09;98711.22;4977438;28;20039;-66
2021/03/11 03:40:01;;;;;;;43.07;17.43;;;;;;;-3.05;84.01;98713.72;4976143;28;20035;-66
2021/03/11 03:42:30;;;;;;;31.80;14.83;;;;;;;-3.10;84.08;98710.22;4976272;28;20058;-67
2021/03/11 03:45:00;;;;;;;37.33;14.53;;;;;;;-3.12;84.37;98702.63;4977890;28;20089;-66
2021/03/11 03:47:26;;;;;;;34.87;13.90;;;;;;;-3.13;84.23;98708.44;4976481;28;20049;-67
2021/03/11 03:49:52;;;;;;;32.77;13.87;;;;;;;-3.16;83.97;98705.84;4979021;28;20051;-65
2021/03/11 03:52:18;;;;;;;30.77;14.17;;;;;;;-3.13;83.87;98705.06;4978166;28;20027;-66
2021/03/11 03:54:45;;;;;;;35.50;14.90;;;;;;;-3.16;84.18;98700.81;4977950;28;20034;-66
2021/03/11 03:57:14;;;;;;;36.80;15.63;;;;;;;-3.14;83.96;98700.88;4978584;28;20062;-66
2021/03/11 03:59:40;;;;;;;29.87;13.33;;;;;;;-3.03;84.38;98694.59;4978360;28;20407;-67
2021/03/11 04:02:07;;;;;;;31.33;14.77;;;;;;;-2.99;83.92;98692.25;4975238;28;20058;-66
2021/03/11 04:04:52;;;;;;;33.17;12.60;;;;;;;-2.94;84.08;98689.91;4976202;28;20042;-65
2021/03/11 04:07:24;;;;;;;32.83;13.77;;;;;;;-3.03;84.43;98672.03;4977881;28;20269;-70
2021/03/11 04:09:51;;;;;;;37.20;15.13;;;;;;;-2.96;83.99;98679.81;4975026;28;20122;-66
2021/03/11 04:12:20;;;;;;;28.43;13.63;;;;;;;-2.97;83.67;98683.09;4976579;28;20373;-65
2021/03/11 04:14:46;;;;;;;34.80;13.87;;;;;;;-2.96;83.68;98667.25;4975134;28;20031;-66
2021/03/11 04:17:14;;;;;;;32.13;13.97;;;;;;;-2.97;83.89;98663.03;4977565;28;20045;-66
2021/03/11 04:19:40;;;;;;;40.37;15.20;;;;;;;-2.94;83.56;98662.31;4977469;28;20073;-67
2021/03/11 04:22:07;;;;;;;31.90;14.40;;;;;;;-2.91;84.13;98670.78;4975361;28;20062;-67
2021/03/11 04:24:34;;;;;;;31.77;13.60;;;;;;;-2.94;83.03;98663.16;4976736;28;20030;-67
2021/03/11 04:27:05;;;;;;;26.63;12.67;;;;;;;-2.90;83.53;98659.97;4977075;28;20059;-66
2021/03/11 04:29:31;;;;;;;32.00;14.10;;;;;;;-2.96;83.47;98658.88;4974570;28;20577;-66
2021/03/11 04:31:57;;;;;;;31.73;14.13;;;;;;;-3.01;83.53;98666.25;4976818;28;20637;-66
2021/03/11 04:34:23;;;;;;;34.07;13.87;;;;;;;-3.01;83.52;98657.91;4976585;28;20265;-66
2021/03/11 04:36:49;;;;;;;31.40;14.27;;;;;;;-3.01;83.61;98653.72;4981612;28;20038;-67
2021/03/11 04:39:16;;;;;;;31.90;14.10;;;;;;;-2.99;83.79;98649.63;4977933;28;20361;-67
2021/03/11 04:41:41;;;;;;;32.30;14.17;;;;;;;-3.05;83.93;98646.03;4979693;28;20046;-66
2021/03/11 04:44:07;;;;;;;31.73;14.10;;;;;;;-3.01;84.64;98646.19;4978825;28;20392;-68
2021/03/11 04:46:33;;;;;;;39.73;15.77;;;;;;;-2.97;84.09;98644.66;4979370;28;20026;-67
2021/03/11 04:49:01;;;;;;;41.43;13.93;;;;;;;-2.94;84.49;98650.63;4979008;28;20553;-65
2021/03/11 04:51:28;;;;;;;27.70;13.10;;;;;;;-2.93;84.27;98651.50;4977878;28;20034;-66
2021/03/11 04:53:54;;;;;;;37.00;14.13;;;;;;;-2.91;83.78;98639.84;4979550;28;20030;-66
2021/03/11 04:56:23;;;;;;;33.60;14.30;;;;;;;-2.91;84.07;98638.19;4979143;28;20101;-66
2021/03/11 04:58:49;;;;;;;29.60;13.57;;;;;;;-3.01;84.38;98638.66;4979569;28;20045;-66
2021/03/11 05:01:20;;;;;;;38.73;15.87;;;;;;;-2.96;84.04;98642.19;4974516;28;20034;-66
2021/03/11 05:03:46;;;;;;;32.03;14.73;;;;;;;-2.96;84.09;98646.34;4978178;28;20195;-66
2021/03/11 05:06:13;;;;;;;35.93;16.00;;;;;;;-2.97;84.16;98647.16;4977070;28;20040;-66
2021/03/11 05:08:39;;;;;;;38.63;14.67;;;;;;;-2.98;84.19;98648.81;4979842;28;20045;-66
2021/03/11 05:11:04;;;;;;;32.63;13.57;;;;;;;-2.97;84.30;98648.00;4978018;28;20034;-66
2021/03/11 05:13:30;;;;;;;32.93;14.60;;;;;;;-2.92;83.27;98648.16;4979694;28;20049;-66
2021/03/11 05:15:59;;;;;;;38.63;16.07;;;;;;;-2.89;83.81;98640.75;4977312;28;20027;-66
2021/03/11 05:18:25;;;;;;;39.23;16.10;;;;;;;-2.90;83.67;98637.38;4978705;28;20507;-66
2021/03/11 05:20:50;;;;;;;32.57;14.23;;;;;;;-2.85;83.62;98637.56;4977656;28;20106;-65
2021/03/11 05:23:17;;;;;;;40.03;14.53;;;;;;;-2.84;83.98;98616.66;4975570;28;20035;-65
2021/03/11 05:25:42;;;;;;;45.70;16.67;;;;;;;-2.81;83.57;98625.16;4978745;28;20093;-67
2021/03/11 05:28:08;;;;;;;34.53;14.60;;;;;;;-2.80;83.56;98621.00;4977949;28;20030;-66
2021/03/11 05:30:33;;;;;;;29.97;12.73;;;;;;;-2.74;84.01;98615.31;4977753;28;20030;-66
2021/03/11 05:32:59;;;;;;;30.67;13.60;;;;;;;-2.75;83.26;98606.94;4980364;28;20147;-66
2021/03/11 05:35:24;;;;;;;31.20;13.60;;;;;;;-2.76;83.10;98611.09;4978809;28;20035;-66
2021/03/11 05:37:50;;;;;;;35.50;17.30;;;;;;;-2.69;83.19;98613.81;4977238;28;20034;-69
2021/03/11 05:40:16;;;;;;;43.90;15.67;;;;;;;-2.67;83.08;98615.56;4977941;28;20329;-65
2021/03/11 05:42:47;;;;;;;36.50;16.17;;;;;;;-2.50;82.91;98616.09;4979590;28;20285;-66
2021/03/11 05:45:13;;;;;;;35.23;15.50;;;;;;;-2.49;83.59;98608.63;4976961;28;20027;-66
2021/03/11 05:47:43;;;;;;;41.97;15.57;;;;;;;-2.36;83.05;98607.34;4976205;28;20039;-66
2021/03/11 05:50:10;;;;;;;43.73;17.30;;;;;;;-2.37;82.52;98609.00;4977232;28;20034;-66
2021/03/11 05:52:36;;;;;;;32.83;14.03;;;;;;;-2.35;82.70;98607.41;4979728;28;20047;-66
2021/03/11 05:55:04;;;;;;;37.37;14.77;;;;;;;-2.20;82.70;98613.69;4977076;28;20407;-66
2021/03/11 05:57:30;;;;;;;38.80;14.87;;;;;;;-2.19;82.58;98600.34;4977439;28;20371;-65
2021/03/11 05:59:56;;;;;;;30.53;13.73;;;;;;;-2.09;82.08;98603.19;4978161;28;20130;-66
2021/03/11 06:02:26;;;;;;;32.33;13.67;;;;;;;-2.00;81.91;98600.09;4978160;28;20130;-65
2021/03/11 06:04:55;;;;;;;42.13;16.40;;;;;;;-1.94;81.75;98588.56;4978055;28;20039;-66
2021/03/11 06:07:24;;;;;;;29.23;13.40;;;;;;;-1.90;81.63;98589.50;4977004;28;20031;-66
2021/03/11 06:09:54;;;;;;;34.57;14.23;;;;;;;-1.73;81.77;98590.84;4977487;28;20034;-66
2021/03/11 06:12:22;;;;;;;30.53;13.47;;;;;;;-1.75;81.09;98594.13;4976753;28;20038;-66
2021/03/11 06:14:52;;;;;;;31.53;14.57;;;;;;;-1.73;80.82;98588.31;4976729;28;20277;-65
2021/03/11 06:17:18;;;;;;;32.63;13.53;;;;;;;-1.62;80.68;98576.94;4977729;28;20026;-67
2021/03/11 06:19:44;;;;;;;31.87;12.53;;;;;;;-1.60;80.76;98585.34;4977493;28;20031;-67
2021/03/11 06:22:10;;;;;;;33.90;14.57;;;;;;;-1.43;80.66;98578.25;4970355;28;20035;-66
2021/03/11 06:24:35;;;;;;;35.77;14.43;;;;;;;-1.27;80.25;98582.88;4976769;28;20348;-67
2021/03/11 06:27:01;;;;;;;33.53;15.90;;;;;;;-1.12;79.86;98580.78;4976546;28;20035;-66
2021/03/11 06:29:40;;;;;;;31.33;15.03;;;;;;;-0.81;79.25;98579.06;4975954;28;20042;-70
2021/03/11 06:32:10;;;;;;;32.10;15.07;;;;;;;-0.76;78.98;98567.41;4974143;28;20041;-66
2021/03/11 06:34:42;;;;;;;32.10;14.10;;;;;;;-0.55;78.42;98565.41;4977091;28;20078;-67
2021/03/11 06:37:12;;;;;;;36.03;16.10;;;;;;;-0.44;77.68;98568.19;4976584;28;20022;-67
2021/03/11 06:39:38;;;;;;;46.83;18.23;;;;;;;-0.30;77.35;98572.75;4973809;28;20117;-71
2021/03/11 06:42:05;;;;;;;52.27;21.70;;;;;;;-0.18;77.26;98572.16;4974350;28;20425;-70
2021/03/11 06:44:41;;;;;;;36.00;17.27;;;;;;;-0.04;77.04;98569.09;4980595;28;20058;-71
2021/03/11 06:47:12;;;;;;;37.30;16.63;;;;;;;0.03;76.50;98571.75;4999805;28;20042;-72
2021/03/11 06:49:58;;;;;;;39.67;17.67;;;;;;;0.25;76.67;98566.38;4999653;28;20054;-71
2021/03/11 06:52:24;;;;;;;30.90;15.20;;;;;;;0.39;76.18;98552.34;4995999;28;20027;-69
2021/03/11 06:54:50;;;;;;;30.10;15.20;;;;;;;0.56;75.74;98556.03;4989583;28;20023;-71
2021/03/11 06:57:42;;;;;;;30.43;16.57;;;;;;;0.86;74.50;98546.53;4995490;28;20026;-69
2021/03/11 07:00:13;;;;;;;36.50;17.30;;;;;;;1.03;73.73;98548.47;4994524;28;20061;-68
2021/03/11 07:02:51;;;;;;;36.27;17.83;;;;;;;1.08;73.20;98557.84;4995567;28;20041;-65
2021/03/11 07:05:17;;;;;;;32.80;17.63;;;;;;;1.35;73.09;98540.63;4994192;28;20035;-70
2021/03/11 07:07:43;;;;;;;32.77;16.63;;;;;;;1.39;71.70;98549.09;4995177;28;20257;-71
2021/03/11 07:10:29;;;;;;;31.17;16.47;;;;;;;1.56;72.61;98559.47;4995688;28;20041;-71
2021/03/11 07:12:58;;;;;;;28.27;14.67;;;;;;;1.28;72.79;98563.22;4995521;28;20037;-70
2021/03/11 07:15:26;;;;;;;31.37;13.73;;;;;;;1.54;72.56;98549.31;4998132;28;20097;-70
2021/03/11 07:17:53;;;;;;;28.33;14.13;;;;;;;1.74;72.11;98530.25;4995085;28;20039;-68
2021/03/11 07:20:32;;;;;;;22.47;12.80;;;;;;;2.13;71.06;98531.59;4996550;28;20030;-70
2021/03/11 07:23:03;;;;;;;29.03;13.67;;;;;;;2.35;70.28;98533.56;4994940;28;20066;-68
2021/03/11 07:25:38;;;;;;;24.77;13.60;;;;;;;2.45;69.40;98532.88;4994520;28;20085;-71
2021/03/11 07:28:05;;;;;;;28.13;12.47;;;;;;;2.63;68.48;98529.69;4995947;28;20505;-70
2021/03/11 07:30:47;;;;;;;22.63;12.40;;;;;;;2.78;68.31;98528.97;4994780;28;20038;-71
2021/03/11 07:33:14;;;;;;;25.33;13.00;;;;;;;2.99;66.94;98524.97;4993495;28;20034;-69
2021/03/11 07:35:41;;;;;;;23.73;11.80;;;;;;;3.18;66.00;98526.00;4992568;28;20492;-70
2021/03/11 07:38:07;;;;;;;26.33;12.83;;;;;;;3.31;65.47;98526.94;4995575;28;20090;-69
2021/03/11 07:40:33;;;;;;;22.07;12.50;;;;;;;3.32;65.47;98516.81;4994821;28;20032;-69
2021/03/11 07:43:00;;;;;;;26.97;12.67;;;;;;;3.58;65.34;98520.38;4995340;28;20053;-70
2021/03/11 07:45:26;;;;;;;27.13;13.83;;;;;;;3.68;65.02;98506.94;4994550;28;20034;-71
2021/03/11 07:47:53;;;;;;;22.73;12.03;;;;;;;3.81;64.57;98507.00;4995583;28;20046;-71
2021/03/11 07:50:19;;;;;;;33.27;15.23;;;;;;;3.64;64.69;98512.84;4992283;28;20038;-71
2021/03/11 07:52:45;;;;;;;30.10;14.60;;;;;;;3.48;65.59;98510.19;4992434;28;20088;-71
2021/03/11 07:55:12;;;;;;;34.17;15.97;;;;;;;3.65;65.86;98511.13;4991234;28;20245;-69
2021/03/11 07:57:44;;;;;;;29.13;14.00;;;;;;;3.92;65.57;98516.38;4994528;28;20045;-70
2021/03/11 08:00:11;;;;;;;31.83;16.00;;;;;;;3.89;65.13;98511.28;4994382;28;20343;-71
2021/03/11 08:02:41;;;;;;;31.47;14.27;;;;;;;4.10;65.19;98505.47;4994491;28;20030;-70
2021/03/11 08:05:07;;;;;;;28.50;14.43;;;;;;;4.34;63.95;98510.63;4995551;28;20030;-72
2021/03/11 08:07:33;;;;;;;25.80;14.30;;;;;;;4.60;63.24;98503.09;4995573;28;20092;-72
2021/03/11 08:09:59;;;;;;;28.53;15.03;;;;;;;4.90;62.58;98499.78;4996958;28;20109;-71
2021/03/11 08:12:40;;;;;;;33.03;15.40;;;;;;;5.15;62.37;98495.56;4994265;28;20030;-71
2021/03/11 08:15:14;;;;;;;29.50;14.67;;;;;;;5.40;61.49;98504.88;4999220;28;20030;-71
2021/03/11 08:17:46;;;;;;;38.92;16.83;;;;;;;5.47;60.03;98497.22;4995158;28;20038;-70
2021/03/11 08:20:20;;;;;;;36.27;21.67;;;;;;;5.44;60.95;98489.63;4996861;28;20387;-70
2021/03/11 08:22:52;;;;;;;35.30;16.20;;;;;;;5.45;61.23;98481.16;4993163;28;20035;-70
2021/03/11 08:25:33;;;;;;;40.13;19.37;;;;;;;5.54;60.56;98480.28;4997367;28;20065;-70
2021/03/11 08:28:02;;;;;;;43.77;24.53;;;;;;;5.58;60.94;98481.13;4998089;28;20018;-70
2021/03/11 08:30:40;;;;;;;38.10;17.73;;;;;;;5.50;61.07;98473.53;4994931;28;20126;-71
2021/03/11 08:33:06;;;;;;;36.33;22.17;;;;;;;5.53;61.81;98476.03;4991570;28;20030;-70
2021/03/11 08:35:46;;;;;;;46.43;32.10;;;;;;;5.65;61.82;98473.47;4996613;28;20448;-70
2021/03/11 08:38:24;;;;;;;48.00;32.27;;;;;;;5.59;62.28;98460.78;4991799;28;20061;-69
2021/03/11 08:41:07;;;;;;;46.50;28.87;;;;;;;5.85;60.80;98453.94;4989412;28;20027;-71
2021/03/11 08:43:35;;;;;;;60.93;55.77;;;;;;;6.03;60.65;98442.88;4997332;28;20379;-66
2021/03/11 08:46:22;;;;;;;63.13;57.30;;;;;;;6.18;59.35;98447.06;4995284;28;20030;-67
2021/03/11 08:48:58;;;;;;;71.60;65.33;;;;;;;6.16;59.56;98439.41;4995247;28;20394;-67
2021/03/11 08:51:23;;;;;;;41.30;35.97;;;;;;;6.38;58.88;98427.44;4998180;28;20034;-67
2021/03/11 08:53:54;;;;;;;44.77;34.00;;;;;;;6.59;58.77;98426.44;4996823;28;20034;-67
2021/03/11 08:56:19;;;;;;;35.60;19.47;;;;;;;6.43;58.79;98426.56;4996297;28;20046;-67
2021/03/11 08:58:59;;;;;;;30.13;15.43;;;;;;;6.63;58.38;98423.88;4996395;28;20030;-67
2021/03/11 09:01:47;;;;;;;30.23;14.50;;;;;;;6.82;58.46;98406.78;4991625;28;20377;-67
2021/03/11 09:04:27;;;;;;;46.83;23.83;;;;;;;6.91;57.73;98391.41;4993499;28;20080;-66
2021/03/11 09:06:54;;;;;;;33.30;21.17;;;;;;;6.97;57.78;98377.75;4992628;28;20034;-67
2021/03/11 09:09:46;;;;;;;31.43;23.87;;;;;;;7.13;57.37;98382.69;4991828;28;20216;-66
2021/03/11 09:12:14;;;;;;;37.47;26.63;;;;;;;7.21;57.64;98377.53;4990761;28;20065;-68
2021/03/11 09:14:43;;;;;;;24.23;13.60;;;;;;;7.07;58.31;98387.00;4989348;28;20076;-69
2021/03/11 09:17:10;;;;;;;25.50;14.27;;;;;;;6.82;58.66;98381.28;4990808;28;20031;-67
2021/03/11 09:19:38;;;;;;;28.47;12.87;;;;;;;7.12;58.70;98375.94;4991938;28;20316;-70
2021/03/11 09:22:24;;;;;;;26.77;13.77;;;;;;;7.25;57.49;98386.84;4985704;28;20026;-70
2021/03/11 09:25:10;;;;;;;26.47;12.53;;;;;;;7.42;56.63;98379.88;4990456;28;20191;-65
2021/03/11 09:27:50;;;;;;;32.03;15.63;;;;;;;7.18;58.06;98372.47;4990213;28;20081;-69
2021/03/11 09:30:18;;;;;;;38.10;21.10;;;;;;;7.52;56.13;98360.19;4990856;28;20281;-69
2021/03/11 09:32:43;;;;;;;44.37;35.93;;;;;;;7.54;56.36;98361.88;4990869;28;20038;-71
2021/03/11 09:35:14;;;;;;;42.57;38.00;;;;;;;7.70;54.63;98352.34;4997829;28;20026;-70
2021/03/11 09:37:50;;;;;;;62.17;57.90;;;;;;;8.01;51.48;98352.81;4991798;28;20029;-70
2021/03/11 09:40:28;;;;;;;66.47;59.90;;;;;;;8.30;49.47;98357.53;4993832;28;20069;-71
2021/03/11 09:43:14;;;;;;;44.03;34.57;;;;;;;8.30;49.31;98350.72;4992906;28;20056;-69
2021/03/11 09:45:49;;;;;;;24.17;13.57;;;;;;;8.19;49.52;98352.53;4994407;28;20367;-70
2021/03/11 09:48:29;;;;;;;150.50;138.07;;;;;;;8.28;49.74;98342.19;4986873;28;20060;-69
2021/03/11 09:51:19;;;;;;;126.90;118.53;;;;;;;8.37;48.79;98336.13;4993231;28;20083;-69
2021/03/11 09:53:49;;;;;;;188.83;175.90;;;;;;;8.16;49.08;98333.00;4983969;28;20053;-71
2021/03/11 09:56:25;;;;;;;216.33;200.57;;;;;;;8.18;49.40;98321.06;4988901;28;20034;-70
2021/03/11 09:58:56;;;;;;;230.00;213.30;;;;;;;8.16;49.75;98335.56;4988131;28;20034;-70
2021/03/11 10:01:36;;;;;;;137.90;126.20;;;;;;;7.87;48.66;98312.13;4992276;28;20052;-69
2021/03/11 10:04:11;;;;;;;274.70;251.57;;;;;;;7.99;49.00;98322.19;4988455;28;20026;-70
2021/03/11 10:06:37;;;;;;;255.68;234.48;;;;;;;7.90;48.79;98324.84;4990657;28;20115;-71
2021/03/11 10:09:03;;;;;;;268.57;244.40;;;;;;;7.74;49.16;98308.06;4996817;28;20023;-70
2021/03/11 10:11:42;;;;;;;259.70;236.73;;;;;;;7.80;50.46;98308.00;4993712;28;20025;-69
2021/03/11 10:14:22;;;;;;;245.13;222.00;;;;;;;7.82;50.24;98301.16;4993692;28;20030;-70
2021/03/11 10:16:49;;;;;;;290.23;262.80;;;;;;;7.88;50.10;98293.41;4992145;28;20044;-68
2021/03/11 10:19:21;;;;;;;278.33;252.97;;;;;;;7.93;49.68;98285.69;4995228;28;20045;-69
2021/03/11 10:21:50;;;;;;;300.97;274.07;;;;;;;8.16;49.70;98279.38;4998019;28;20068;-68
2021/03/11 10:24:38;;;;;;;301.77;273.63;;;;;;;8.32;48.77;98279.19;4996161;28;20053;-68
2021/03/11 10:27:28;;;;;;;281.93;257.93;;;;;;;8.15;49.30;98275.13;4992707;28;20033;-68
2021/03/11 10:30:20;;;;;;;286.70;261.77;;;;;;;8.17;48.74;98268.31;4996758;28;20378;-68
2021/03/11 10:32:57;;;;;;;297.30;270.03;;;;;;;8.11;48.86;98281.16;4996163;28;20030;-69
2021/03/11 10:35:31;;;;;;;296.40;270.90;;;;;;;8.04;49.26;98277.03;4997150;28;20040;-69
2021/03/11 10:38:15;;;;;;;302.17;274.93;;;;;;;8.11;49.52;98265.00;4993734;28;20030;-69
2021/03/11 10:40:41;;;;;;;301.73;273.43;;;;;;;8.20;48.85;98270.81;4995803;28;20030;-69
2021/03/11 10:43:16;;;;;;;312.00;282.80;;;;;;;8.52;47.57;98262.69;4996710;28;20100;-70
2021/03/11 10:45:41;;;;;;;295.60;271.30;;;;;;;8.36;48.25;98258.66;4996437;28;20018;-70
2021/03/11 10:48:08;;;;;;;323.10;293.67;;;;;;;8.30;49.65;98263.88;4997591;28;20050;-70
2021/03/11 10:50:45;;;;;;;320.20;288.80;;;;;;;8.42;48.77;98263.69;4996695;28;20030;-69
2021/03/11 10:53:11;;;;;;;319.47;287.97;;;;;;;8.21;50.29;98275.06;4994477;28;20038;-70
2021/03/11 10:55:39;;;;;;;316.07;284.97;;;;;;;8.42;49.27;98247.50;4997045;28;20054;-71
2021/03/11 10:58:06;;;;;;;313.30;281.83;;;;;;;8.55;48.56;98234.50;4997262;28;20045;-71
2021/03/11 11:00:36;;;;;;;327.73;294.30;;;;;;;8.54;49.85;98270.28;4996736;28;20023;-70
2021/03/11 11:03:03;;;;;;;334.27;300.20;;;;;;;8.49;49.34;98267.81;4995115;28;20026;-70
2021/03/11 11:05:30;;;;;;;327.10;291.90;;;;;;;8.42;48.84;98268.78;4999056;28;20322;-69
2021/03/11 11:07:56;;;;;;;296.57;267.10;;;;;;;8.62;49.02;98269.31;4998532;28;20018;-71
2021/03/11 11:10:25;;;;;;;319.37;290.73;;;;;;;8.57;49.92;98257.50;4995282;28;20032;-70
2021/03/11 11:12:50;;;;;;;319.40;290.20;;;;;;;8.39;49.12;98270.56;4995391;28;20045;-70
2021/03/11 11:15:17;;;;;;;316.33;284.47;;;;;;;8.42;49.21;98288.38;4993822;28;20026;-71
2021/03/11 11:17:42;;;;;;;321.33;289.13;;;;;;;8.48;48.97;98295.97;4997000;28;20165;-70
2021/03/11 11:20:11;;;;;;;315.17;282.57;;;;;;;8.51;50.09;98296.75;4995954;28;20385;-70
2021/03/11 11:22:38;;;;;;;333.27;298.20;;;;;;;8.48;52.49;98262.75;4996912;28;20038;-70
2021/03/11 11:25:05;;;;;;;339.17;304.13;;;;;;;8.57;53.77;98239.59;4996899;28;20014;-70
2021/03/11 11:27:30;;;;;;;332.30;297.30;;;;;;;8.77;54.20;98206.88;4996678;28;20041;-70